Cape Elizabeth- 45nm Nw Of Aberdeen, Wa (46041) Wave Buoy

7:50pm - Thu 26th Nov 2015 All times are PST. -8 hours from GMT.

  • Sig Wave height 3.6ft
  • Swell Direction
  • Peak Period 15s
  • Average Period 9s
  • Wind
    4mph, 7mph gusts
  • Sea Temp 50°f
  • Air Temp 47°f
  • Sea Pressure 1029.7mb
  • Cape Elizabeth- 45nm Nw Of Aberdeen, Wa
  • Cape Elizabeth- 45nm Nw Of Aberdeen, Wa

More Historic Weather Station data

Upgrade to MSW Pro to gain access to the past 30 days of data for over 8000 Wavebouys and Weather Stations around the globe.

Join Pro

Comparision Forecast

View Surf forecast
Thu 11/26 7:50pm 3.5ft 15s 9s 4 7 mph 1029.7mb 50f 47f
6:50pm 4.5ft 16s 9s 7
1029.6mb 50f 47f
5:50pm 4.5ft 13s 9s 7 9 mph 1029.5mb 50f 47f
4:50pm 4.5ft 16s 9s 9 11 mph 1029.4mb 50f 46f
3:50pm 4.5ft 16s 9s 11
1029.6mb 50f 46f
2:50pm 4.5ft 16s 8s 7 9 mph 1029.5mb 50f 45f
1:50pm 5ft 16s 8s 4 7 mph 1029.7mb 50f 45f
12:50pm 6ft 17s 9s 7 9 mph 1030.2mb 50f 44f
11:50am 6ft 13s 8s 7 11 mph 1030.4mb 51f 44f
10:50am 6.5ft 17s 9s 7 9 mph 1030.9mb 50f 43f
9:50am 6ft 13s 8s 11 13 mph 1030.5mb 50f 43f
8:50am 6ft 14s 8s 11 13 mph 1029.8mb 50f 43f
7:50am 5ft 14s 8s 11 16 mph 1029.3mb 50f 42f
6:50am 5ft 14s 9s 9 11 mph 1029mb 50f 44f
5:50am 5ft 14s 9s 9 13 mph 1028.7mb 50f 44f
4:50am 4.5ft 15s 9s 7 9 mph 1028.5mb 50f 45f
3:50am 5ft 14s 9s 9 11 mph 1028.3mb 50f 44f
2:50am 5ft 19s 9s 9 11 mph 1028mb 50f 45f
1:50am 4.5ft 9s 9s 7 9 mph 1027.8mb 50f 45f
12:50am 5ft 9s 8s 4 7 mph 1027.6mb 50f 45f
Wed 11/25 11:50pm 5ft 10s 8s 2 4 mph 1027.5mb 50f 46f
10:50pm 5ft 9s 8s 4
1027.3mb 50f 46f
9:50pm 4.5ft 10s 8s 2 4 mph 1027mb 51f 46f
8:50pm 4.5ft 9s 8s 2
1026.9mb 51f 46f
7:50pm 5ft 10s 8s 2
1026.6mb 51f 46f
6:50pm 4.5ft 10s 8s 4
1026.6mb 51f 46f
5:50pm 5ft 10s 8s 4
1026.2mb 51f 45f
4:50pm 5.5ft 10s 8s  -  2 mph 1026.1mb 51f 45f
3:50pm 6ft 10s 8s 4
1025.5mb 51f 45f
2:50pm 6ft 10s 8s 2 4 mph 1025.2mb 51f 45f
1:50pm 6ft 10s 7s 4 7 mph 1025mb 51f 45f
12:50pm 7ft 11s 8s 7 9 mph 1024.9mb 51f 45f
11:50am 6ft 11s 7s 7 11 mph 1024.9mb 51f 44f
10:50am 7ft 11s 7s 9 13 mph 1024.4mb 51f 43f
9:50am 7ft 11s 8s 11 16 mph 1024.5mb 51f 44f
8:50am 8ft 11s 8s 11 16 mph 1023.7mb 51f 44f
7:50am 8ft 11s 8s 16 20 mph 1022.8mb 51f 44f
6:50am 9ft 11s 8s 7 13 mph 1022.4mb 51f 45f
5:50am 8.5ft 11s 8s 7 9 mph 1021.7mb 51f 44f
4:50am 9ft 11s 9s 7 9 mph 1021.6mb 51f 45f
3:50am 9ft 11s 8s 4 9 mph 1021.3mb 51f 44f
2:50am 10ft 11s 9s 7 9 mph 1021.2mb 51f 45f
1:50am 10ft 11s 8s 9 13 mph 1020.4mb 52f 46f
12:50am 9.5ft 11s 8s 16 20 mph 1019.8mb 52f 45f
Tue 11/24 11:50pm 10.5ft 12s 8s 22 27 mph 1019.3mb 52f 47f
10:50pm 10ft 12s 7s 25 29 mph 1018.6mb 52f 47f
9:50pm 10ft 12s 7s 25 29 mph 1018.1mb 52f 48f
8:50pm 11ft 11s 7s 27 34 mph 1017.4mb 52f 47f
7:50pm 10ft 12s 7s 29 36 mph 1017mb 52f 47f
6:50pm 11ft 12s 8s 31 38 mph 1016.1mb 52f 47f
5:50pm 11ft 13s 7s 31 36 mph 1015.9mb 52f 48f
4:50pm 10.5ft 13s 7s 27 31 mph 1014.9mb 51f 48f
3:50pm 12ft 13s 8s 29 34 mph 1013.9mb 51f 48f
2:50pm 11ft 13s 8s 27 31 mph 1013mb 51f 48f
1:50pm 12ft 13s 8s 27 31 mph 1012.4mb 51f 48f
12:50pm 13ft 13s 9s 25 29 mph 1012mb 51f 47f
11:50am 12.5ft 13s 9s 20 25 mph 1011.7mb 51f 47f
10:50am 13ft 13s 10s 7 11 mph 1011.5mb 51f 45f
9:50am 13.5ft 14s 10s 2 7 mph 1010.6mb 51f 45f
8:50am 14ft 12s 10s 9 11 mph 1009.9mb 51f 45f
7:50am 14ft 13s 10s 9 13 mph 1008.4mb 51f 45f
6:50am 14ft 14s 10s 11 13 mph 1007.4mb 51f 45f
5:50am 13ft 13s 9s 9 11 mph 1006.4mb 52f 45f
4:50am 13ft 14s 9s 7 9 mph 1005.9mb 52f 46f
3:50am 13ft 13s 9s 4 7 mph 1005.6mb 52f 45f
2:50am 13ft 12s 9s 4 9 mph 1005.7mb 52f 45f
1:50am 13.5ft 11s 9s 7 9 mph 1005.6mb 53f 46f
12:50am 13ft 13s 8s 11 16 mph 1005.7mb 53f 46f
Mon 11/23 11:50pm 12ft 11s 8s 20 27 mph 1006mb 53f 46f
10:50pm 11.5ft 11s 8s 18 22 mph 1006.6mb 53f 47f
9:50pm 11ft 11s 8s 20 27 mph 1007mb 53f 47f
8:50pm 10ft 10s 7s 22 29 mph 1007.5mb 53f 47f
7:50pm 9.5ft 12s 7s 22 27 mph 1007.9mb 52f 48f
6:50pm 8ft 13s 8s 22 29 mph 1008.5mb 52f 47f
5:50pm 8.5ft 13s 8s 20 22 mph 1009mb 52f 46f
4:50pm 8.5ft 14s 8s 20 25 mph 1009.3mb 52f 46f
3:50pm 8ft 13s 9s 16 18 mph 1009.5mb 51f 48f
2:50pm 8.5ft 13s 10s 9 16 mph 1009.8mb 51f 47f
1:50pm 8ft 14s 9s 2 4 mph 1009.8mb 52f 47f
12:50pm 7ft 13s 9s 7 9 mph 1010mb 52f 46f
11:50am 7ft 14s 10s 9 11 mph 1010.3mb 52f 47f
10:50am 7.5ft 14s 10s 11 13 mph 1010.7mb 52f 46f
9:50am 8ft 15s 10s 11 13 mph 1010.7mb 52f 46f
8:50am 7.5ft 14s 10s 9 13 mph 1010.8mb 52f 47f
7:50am 8ft 14s 10s 7 9 mph 1011.1mb 52f 47f
6:50am 7ft 14s 10s 9 13 mph 1011.2mb 52f 46f
5:50am 8ft 15s 10s 13 16 mph 1011.4mb 52f 46f